createdAt,value
2018-11-06T00:02:20.486Z,12.95
2018-11-06T00:04:47.176Z,12.92
2018-11-06T00:07:13.581Z,12.94
2018-11-06T00:09:40.002Z,12.95
2018-11-06T00:12:06.702Z,12.95
2018-11-06T00:14:33.118Z,12.99
2018-11-06T00:17:00.054Z,13.01
2018-11-06T00:19:26.518Z,13.02
2018-11-06T00:21:53.261Z,13.03
2018-11-06T00:24:19.735Z,13.09
2018-11-06T00:26:48.188Z,13.13
2018-11-06T00:29:14.787Z,13.10
2018-11-06T00:31:41.487Z,13.09
2018-11-06T00:34:07.915Z,13.05
2018-11-06T00:36:34.326Z,13.04
2018-11-06T00:39:00.738Z,12.99
2018-11-06T00:41:27.451Z,13.00
2018-11-06T00:43:53.852Z,13.02
2018-11-06T00:46:20.262Z,12.98
2018-11-06T00:48:46.661Z,12.93
2018-11-06T00:51:13.814Z,12.93
2018-11-06T00:53:40.250Z,12.95
2018-11-06T00:56:07.324Z,13.04
2018-11-06T00:59:35.523Z,12.97
2018-11-06T01:34:04.939Z,12.15
2018-11-06T01:36:31.563Z,12.09
2018-11-06T01:38:58.200Z,12.09
2018-11-06T01:41:25.086Z,12.03
2018-11-06T01:43:51.510Z,11.93
2018-11-06T01:46:17.914Z,11.97
2018-11-06T01:48:44.325Z,11.91
2018-11-06T01:51:11.220Z,11.82
2018-11-06T01:58:40.808Z,11.65
2018-11-06T02:01:07.286Z,11.62
2018-11-06T02:03:33.920Z,11.55
2018-11-06T02:06:00.318Z,11.53
2018-11-06T02:08:27.102Z,11.57
2018-11-06T02:10:53.514Z,11.67
2018-11-06T02:13:19.921Z,11.63
2018-11-06T02:15:46.338Z,11.46
2018-11-06T02:18:13.153Z,11.24
2018-11-06T02:20:39.582Z,11.29
2018-11-06T02:40:41.339Z,11.13
2018-11-06T03:33:13.795Z,9.93
2018-11-06T03:35:40.361Z,9.77
2018-11-06T03:38:06.821Z,9.63
2018-11-06T03:40:33.723Z,9.45
2018-11-06T03:43:00.383Z,9.38
2018-11-06T03:45:27.231Z,9.29
2018-11-06T03:47:53.683Z,9.21
2018-11-06T03:50:20.406Z,9.21
2018-11-06T03:52:46.823Z,9.16
2018-11-06T03:55:13.234Z,9.19
2018-11-06T03:57:39.721Z,9.25
2018-11-06T04:04:21.668Z,9.08
2018-11-06T04:06:48.125Z,9.01
2018-11-06T04:09:14.633Z,8.92
2018-11-06T04:11:41.334Z,8.88
2018-11-06T04:14:08.613Z,8.84
2018-11-06T04:16:35.200Z,8.91
2018-11-06T04:22:09.899Z,8.92
2018-11-06T04:24:36.335Z,8.93
2018-11-06T04:27:02.814Z,8.90
2018-11-06T04:29:30.770Z,8.92
2018-11-06T04:31:57.321Z,8.94
2018-11-06T04:34:23.787Z,8.88
2018-11-06T04:36:50.279Z,8.88
2018-11-06T04:39:17.521Z,8.81
2018-11-06T04:41:43.916Z,8.73
2018-11-06T04:44:10.320Z,8.79
2018-11-06T04:46:36.734Z,8.78
2018-11-06T04:59:43.429Z,9.09
2018-11-06T05:02:09.935Z,8.94
2018-11-06T05:04:36.530Z,8.88
2018-11-06T05:07:03.475Z,8.82
2018-11-06T05:09:30.826Z,8.71
2018-11-06T05:11:57.222Z,8.62
2018-11-06T05:14:23.665Z,8.68
2018-11-06T05:16:50.408Z,8.77
2018-11-06T05:19:16.820Z,8.83
2018-11-06T05:40:50.751Z,8.77
2018-11-06T05:43:17.294Z,8.83
2018-11-06T05:45:44.388Z,8.79
2018-11-06T05:48:11.576Z,8.78
2018-11-06T05:50:38.003Z,8.79
2018-11-06T05:53:04.962Z,8.82
2018-11-06T05:55:31.619Z,8.87
2018-11-06T06:40:45.600Z,9.30
2018-11-06T06:43:12.078Z,9.26
2018-11-06T06:45:38.844Z,9.21
2018-11-06T06:48:05.307Z,9.27
2018-11-06T06:53:48.323Z,9.66
2018-11-06T06:56:14.778Z,9.76
2018-11-06T06:58:41.746Z,9.81
2018-11-06T07:01:08.250Z,9.81
2018-11-06T07:03:34.758Z,9.81
2018-11-06T07:06:01.618Z,9.83
2018-11-06T07:08:28.092Z,9.80
2018-11-06T07:10:54.591Z,9.85
2018-11-06T07:13:21.493Z,9.96
2018-11-06T07:15:47.998Z,10.02
2018-11-06T07:18:15.070Z,10.03
2018-11-06T07:20:42.589Z,10.11
2018-11-06T07:23:10.651Z,10.34
2018-11-06T07:25:37.051Z,10.46
2018-11-06T07:28:03.807Z,10.46
2018-11-06T07:30:30.225Z,10.43
2018-11-06T07:32:56.626Z,10.36
2018-11-06T07:36:35.551Z,10.41
2018-11-06T07:39:02.042Z,10.45
2018-11-06T07:54:31.905Z,11.03
2018-11-06T08:26:47.168Z,12.12
2018-11-06T08:29:13.594Z,12.30
2018-11-06T08:31:40.610Z,12.23
2018-11-06T08:34:07.567Z,12.11
2018-11-06T08:36:34.053Z,12.14
2018-11-06T08:39:00.898Z,12.22
2018-11-06T08:41:27.298Z,12.35
2018-11-06T08:43:53.723Z,12.52
2018-11-06T08:46:20.449Z,12.77
2018-11-06T08:48:47.697Z,12.99
2018-11-06T09:45:27.703Z,16.26
2018-11-06T09:47:54.155Z,16.36
2018-11-06T10:00:53.180Z,17.27
2018-11-06T10:03:19.898Z,17.49
2018-11-06T10:20:27.625Z,18.47
2018-11-06T10:22:54.050Z,18.66
2018-11-06T11:26:36.198Z,20.34
2018-11-06T11:29:02.707Z,20.36
2018-11-06T11:51:51.040Z,20.92
2018-11-06T13:03:04.723Z,21.10
2018-11-06T16:35:08.665Z,17.08
2018-11-06T16:42:25.357Z,17.06
2018-11-06T16:44:52.275Z,17.05
2018-11-06T16:47:18.699Z,17.00
2018-11-06T16:54:26.686Z,16.87
2018-11-06T17:00:53.984Z,16.75
2018-11-06T17:03:20.385Z,16.62
2018-11-06T17:05:47.238Z,16.82
2018-11-06T17:58:04.539Z,16.74
2018-11-06T18:00:34.742Z,16.75
2018-11-06T18:10:31.661Z,16.39
2018-11-06T19:16:05.334Z,15.11
2018-11-06T19:18:34.020Z,15.03
2018-11-06T19:24:28.869Z,14.94
2018-11-06T19:26:55.306Z,14.92
2018-11-06T19:29:22.110Z,14.91
2018-11-06T19:31:49.559Z,14.86
2018-11-06T19:45:47.948Z,14.68
2018-11-06T19:57:00.240Z,14.50
2018-11-06T19:59:26.720Z,14.45
2018-11-06T20:01:54.560Z,14.44
2018-11-06T20:04:23.158Z,14.45
2018-11-06T20:06:49.608Z,14.45
2018-11-06T20:09:16.328Z,14.53
2018-11-06T20:43:27.382Z,13.99
2018-11-06T20:45:53.795Z,14.02
2018-11-06T20:48:22.301Z,14.07
2018-11-06T20:50:50.071Z,13.94
2018-11-06T20:53:16.484Z,13.96
2018-11-06T20:55:43.378Z,13.93
2018-11-06T20:58:09.700Z,13.86
2018-11-06T21:00:36.120Z,13.79
2018-11-06T21:10:58.117Z,13.79
2018-11-06T21:21:26.917Z,13.65
2018-11-06T21:23:53.422Z,13.63
2018-11-06T21:26:20.491Z,13.58
2018-11-06T21:32:12.615Z,13.54
2018-11-06T21:34:39.205Z,13.52
2018-11-06T21:37:05.800Z,13.42
2018-11-06T21:40:43.184Z,13.35
2018-11-06T21:43:09.657Z,13.34
2018-11-06T22:04:38.664Z,13.21
2018-11-06T22:07:05.237Z,13.27
2018-11-06T22:09:32.349Z,13.31
2018-11-06T22:11:58.789Z,13.32
2018-11-06T22:14:25.930Z,13.38
2018-11-06T22:16:53.358Z,13.47
2018-11-06T22:31:09.347Z,13.59
2018-11-06T22:33:36.038Z,13.60
2018-11-06T22:57:54.131Z,13.38
2018-11-06T23:00:20.904Z,13.43
2018-11-06T23:04:51.379Z,13.39
2018-11-06T23:07:17.895Z,13.40
